createdAt,value
2022-12-15T00:01:59.729Z,3.80
2022-12-15T00:04:45.223Z,3.77
2022-12-15T00:07:30.445Z,3.75
2022-12-15T00:10:15.905Z,3.75
2022-12-15T00:13:01.034Z,3.72
2022-12-15T00:15:46.422Z,3.71
2022-12-15T00:18:31.864Z,3.74
2022-12-15T00:21:18.099Z,3.69
2022-12-15T00:24:03.420Z,3.69
2022-12-15T00:26:48.714Z,3.69
2022-12-15T00:29:34.043Z,3.71
2022-12-15T00:32:19.424Z,3.69
2022-12-15T00:35:04.804Z,3.72
2022-12-15T00:37:50.097Z,3.75
2022-12-15T00:40:17.535Z,3.83
2022-12-15T00:42:47.754Z,3.83
2022-12-15T00:45:16.545Z,3.74
2022-12-15T00:47:43.211Z,3.72
2022-12-15T00:50:28.715Z,3.74
2022-12-15T00:53:14.032Z,3.69
2022-12-15T00:55:59.446Z,3.73
2022-12-15T00:58:44.798Z,3.73
2022-12-15T01:01:30.396Z,3.78
2022-12-15T01:04:15.681Z,3.78
2022-12-15T01:07:00.827Z,3.64
2022-12-15T01:09:46.251Z,3.56
2022-12-15T01:12:31.720Z,3.51
2022-12-15T01:15:17.117Z,3.52
2022-12-15T01:18:02.438Z,3.52
2022-12-15T01:20:32.663Z,3.53
2022-12-15T01:22:59.529Z,3.51
2022-12-15T01:25:27.443Z,3.47
2022-12-15T01:27:54.187Z,3.45
2022-12-15T01:30:23.679Z,3.42
2022-12-15T01:32:50.389Z,3.31
2022-12-15T01:35:17.616Z,3.25
2022-12-15T01:37:45.193Z,3.28
2022-12-15T01:40:33.803Z,3.27
2022-12-15T01:43:01.068Z,3.32
2022-12-15T01:45:30.683Z,3.34
2022-12-15T01:48:11.991Z,3.36
2022-12-15T01:50:53.523Z,3.40
2022-12-15T01:53:20.217Z,3.39
2022-12-15T01:55:48.059Z,3.34
2022-12-15T01:58:18.553Z,3.32
2022-12-15T02:00:45.327Z,3.31
2022-12-15T02:03:13.145Z,3.30
2022-12-15T02:05:41.220Z,3.29
2022-12-15T02:08:09.453Z,3.25
2022-12-15T02:10:57.447Z,3.26
2022-12-15T02:13:53.133Z,3.25
2022-12-15T02:16:38.536Z,3.20
2022-12-15T02:19:20.536Z,3.30
2022-12-15T02:22:05.508Z,3.17
2022-12-15T02:24:49.823Z,3.09
2022-12-15T02:27:43.119Z,3.12
2022-12-15T02:30:15.602Z,3.13
2022-12-15T02:32:58.903Z,3.20
2022-12-15T02:35:59.279Z,3.27
2022-12-15T02:38:41.429Z,3.32
2022-12-15T02:41:34.120Z,3.36
2022-12-15T02:44:11.296Z,3.38
2022-12-15T02:46:54.123Z,3.33
2022-12-15T02:49:39.828Z,3.34
2022-12-15T02:52:37.149Z,3.34
2022-12-15T02:55:19.771Z,3.32
2022-12-15T02:58:00.790Z,3.30
2022-12-15T03:00:30.379Z,3.29
2022-12-15T03:02:57.221Z,3.27
2022-12-15T03:05:25.067Z,3.22
2022-12-15T03:07:54.156Z,3.14
2022-12-15T03:10:24.395Z,3.06
2022-12-15T03:12:52.012Z,2.94
2022-12-15T03:15:19.522Z,2.86
2022-12-15T03:17:46.381Z,2.78
2022-12-15T03:20:13.321Z,2.73
2022-12-15T03:22:40.242Z,2.67
2022-12-15T03:25:07.234Z,2.61
2022-12-15T03:27:35.041Z,2.55
2022-12-15T03:30:01.869Z,2.51
2022-12-15T03:32:29.687Z,2.53
2022-12-15T03:34:59.002Z,2.49
2022-12-15T03:37:25.642Z,2.48
2022-12-15T03:39:52.199Z,2.47
2022-12-15T03:42:38.822Z,2.46
2022-12-15T03:45:06.057Z,2.45
2022-12-15T03:47:32.669Z,2.43
2022-12-15T03:49:59.349Z,2.40
2022-12-15T03:52:26.012Z,2.40
2022-12-15T03:54:52.697Z,2.38
2022-12-15T03:57:19.363Z,2.45
2022-12-15T03:59:46.003Z,2.53
2022-12-15T04:02:12.780Z,2.62
2022-12-15T04:04:39.664Z,2.67
2022-12-15T04:07:06.301Z,2.74
2022-12-15T04:09:32.992Z,2.82
2022-12-15T04:11:59.619Z,2.89
2022-12-15T04:14:26.258Z,2.92
2022-12-15T04:16:52.897Z,2.78
2022-12-15T04:19:38.342Z,2.69
2022-12-15T04:22:05.084Z,2.65
2022-12-15T04:24:50.424Z,2.65
2022-12-15T04:27:36.403Z,2.70
2022-12-15T04:30:21.889Z,2.78
2022-12-15T04:33:07.066Z,2.81
2022-12-15T04:35:53.543Z,2.83
2022-12-15T04:38:43.917Z,2.89
2022-12-15T04:41:37.928Z,2.96
2022-12-15T04:44:24.342Z,3.02
2022-12-15T04:47:09.924Z,3.02
2022-12-15T04:49:55.342Z,2.93
2022-12-15T04:52:40.660Z,2.90
2022-12-15T04:55:26.627Z,2.81
2022-12-15T04:58:12.208Z,2.41
2022-12-15T05:00:57.514Z,2.61
2022-12-15T05:03:42.971Z,2.59
2022-12-15T05:06:28.382Z,2.48
2022-12-15T05:09:13.795Z,2.44
2022-12-15T05:11:59.035Z,2.28
2022-12-15T05:14:44.377Z,2.25
2022-12-15T05:17:29.831Z,2.14
2022-12-15T05:20:15.131Z,2.03
2022-12-15T05:23:00.568Z,1.94
2022-12-15T05:25:46.085Z,1.97
2022-12-15T05:28:31.503Z,2.09
2022-12-15T05:31:16.867Z,2.15
2022-12-15T05:33:43.655Z,2.19
2022-12-15T05:36:10.384Z,2.18
2022-12-15T05:38:37.049Z,2.15
2022-12-15T05:41:03.726Z,2.21
2022-12-15T05:43:30.977Z,2.19
2022-12-15T05:46:04.116Z,2.23
2022-12-15T05:48:30.875Z,2.21
2022-12-15T05:50:57.484Z,2.20
2022-12-15T05:53:24.121Z,2.19
2022-12-15T05:55:50.758Z,2.24
2022-12-15T05:58:17.359Z,2.16
2022-12-15T06:00:43.966Z,2.06
2022-12-15T06:03:10.638Z,2.02
2022-12-15T06:05:37.434Z,1.98
2022-12-15T06:08:04.237Z,1.94
2022-12-15T06:10:30.917Z,1.92
2022-12-15T06:12:57.524Z,1.89
2022-12-15T06:15:24.192Z,1.83
2022-12-15T06:17:53.352Z,1.79
2022-12-15T06:20:20.377Z,1.69
2022-12-15T06:22:50.048Z,1.62
2022-12-15T06:25:17.690Z,1.53
2022-12-15T06:27:44.294Z,1.44
2022-12-15T06:30:11.267Z,1.38
2022-12-15T06:32:37.908Z,1.31
2022-12-15T06:35:04.972Z,1.27
2022-12-15T06:37:31.783Z,1.20
2022-12-15T06:39:58.809Z,1.25
2022-12-15T06:42:25.566Z,1.21
2022-12-15T06:44:52.367Z,1.23
2022-12-15T06:47:19.056Z,1.24
2022-12-15T06:49:45.829Z,1.16
2022-12-15T06:52:12.610Z,1.19
2022-12-15T06:54:39.261Z,1.11
2022-12-15T06:57:05.870Z,1.14
2022-12-15T06:59:32.535Z,1.20
2022-12-15T07:02:00.590Z,1.20
2022-12-15T07:04:27.496Z,1.26
2022-12-15T07:06:54.211Z,1.08
2022-12-15T07:09:20.973Z,1.15
2022-12-15T07:11:50.263Z,1.03
2022-12-15T07:14:17.021Z,1.09
2022-12-15T07:16:43.756Z,1.01
2022-12-15T07:19:14.041Z,1.08
2022-12-15T07:21:41.494Z,1.19
2022-12-15T07:24:10.985Z,1.22
2022-12-15T07:26:37.676Z,1.28
2022-12-15T07:29:04.615Z,1.27
2022-12-15T07:31:31.997Z,1.36
2022-12-15T07:33:59.251Z,1.39
2022-12-15T07:36:27.536Z,1.40
2022-12-15T07:39:00.857Z,1.36
2022-12-15T07:41:28.602Z,1.39
2022-12-15T07:43:55.479Z,1.48
2022-12-15T07:46:23.888Z,1.44
2022-12-15T07:48:51.206Z,1.53
2022-12-15T07:51:20.147Z,1.65
2022-12-15T07:53:49.835Z,1.79
2022-12-15T07:56:17.139Z,1.87
2022-12-15T07:58:44.214Z,1.99
2022-12-15T08:01:13.355Z,2.07
2022-12-15T08:03:40.955Z,2.20
2022-12-15T08:06:12.878Z,2.37
2022-12-15T08:08:40.543Z,2.45
2022-12-15T08:11:09.234Z,2.61
2022-12-15T08:16:23.956Z,2.96
2022-12-15T08:18:50.711Z,3.12
2022-12-15T08:21:17.750Z,3.30
2022-12-15T08:23:44.899Z,3.53
2022-12-15T08:26:14.445Z,3.56
2022-12-15T08:28:42.093Z,3.72
2022-12-15T08:31:20.226Z,3.92
2022-12-15T08:33:48.001Z,4.17
2022-12-15T08:36:17.188Z,4.24
2022-12-15T08:38:45.493Z,4.22
2022-12-15T08:41:24.088Z,4.23
2022-12-15T08:43:51.310Z,4.09
2022-12-15T08:46:20.127Z,3.83
2022-12-15T08:48:47.363Z,3.88
2022-12-15T08:51:14.684Z,4.12
2022-12-15T08:53:41.710Z,4.24
2022-12-15T08:56:15.682Z,4.48
2022-12-15T08:58:43.359Z,4.63
2022-12-15T09:01:22.449Z,4.81
2022-12-15T09:03:51.830Z,4.85
2022-12-15T09:06:21.508Z,4.84
2022-12-15T09:08:50.574Z,4.82
2022-12-15T09:11:18.028Z,4.67
2022-12-15T09:13:44.726Z,4.73
2022-12-15T09:16:15.293Z,4.64
2022-12-15T09:18:44.088Z,4.55
2022-12-15T09:21:11.788Z,4.39
2022-12-15T09:23:39.281Z,4.44
2022-12-15T09:26:11.627Z,4.46
2022-12-15T09:28:38.969Z,4.38
2022-12-15T09:31:08.354Z,4.02
2022-12-15T09:33:36.005Z,4.03
2022-12-15T09:36:04.573Z,4.01
2022-12-15T09:38:34.190Z,4.08
2022-12-15T09:41:09.522Z,4.22
2022-12-15T09:43:46.950Z,4.28
2022-12-15T09:46:35.852Z,4.31
2022-12-15T09:49:11.353Z,4.30
2022-12-15T09:51:53.307Z,4.28
2022-12-15T09:54:22.748Z,4.23
2022-12-15T09:56:58.334Z,4.23
2022-12-15T09:59:33.291Z,4.28
2022-12-15T10:02:18.332Z,4.39
2022-12-15T10:04:57.192Z,4.41
2022-12-15T10:07:36.769Z,4.43
2022-12-15T10:10:24.667Z,4.43
2022-12-15T10:13:01.769Z,4.70
2022-12-15T10:15:44.680Z,4.84
2022-12-15T10:18:22.348Z,4.96
2022-12-15T10:20:53.960Z,5.19
2022-12-15T10:23:21.348Z,5.26
2022-12-15T10:25:55.327Z,5.34
2022-12-15T10:28:28.715Z,5.49
2022-12-15T10:31:00.411Z,6.06
2022-12-15T10:33:37.743Z,6.82
2022-12-15T10:36:13.236Z,8.04
2022-12-15T10:38:45.333Z,10.09
2022-12-15T10:41:14.335Z,12.02
2022-12-15T10:43:43.722Z,13.62
2022-12-15T10:46:24.956Z,15.35
2022-12-15T10:49:00.354Z,16.56
2022-12-15T10:51:32.312Z,15.50
2022-12-15T10:54:03.275Z,15.26
2022-12-15T10:56:33.955Z,14.48
2022-12-15T10:59:20.439Z,13.49
2022-12-15T11:01:47.320Z,12.82
2022-12-15T11:04:40.364Z,12.63
2022-12-15T11:07:13.732Z,12.79
2022-12-15T11:09:40.548Z,12.43
2022-12-15T11:12:37.521Z,12.47
2022-12-15T11:15:24.159Z,12.31
2022-12-15T11:18:01.599Z,12.38
2022-12-15T11:20:35.080Z,12.46
2022-12-15T11:23:13.938Z,12.83
2022-12-15T11:25:46.058Z,12.12
2022-12-15T11:28:20.057Z,11.60
2022-12-15T11:31:03.866Z,10.39
2022-12-15T11:33:31.129Z,9.72
2022-12-15T11:36:26.214Z,8.75
2022-12-15T11:39:01.826Z,8.86
2022-12-15T11:41:45.086Z,9.40
2022-12-15T11:44:23.689Z,9.74
2022-12-15T11:47:09.854Z,11.40
2022-12-15T11:49:58.601Z,13.82
2022-12-15T11:52:46.792Z,14.74
2022-12-15T11:55:31.082Z,14.30
2022-12-15T11:58:13.201Z,12.75
2022-12-15T12:00:44.657Z,11.02
2022-12-15T12:03:30.565Z,10.47
2022-12-15T12:06:33.170Z,11.13
2022-12-15T12:09:06.813Z,11.88
2022-12-15T12:11:53.969Z,11.89
2022-12-15T12:14:43.709Z,11.28
2022-12-15T12:17:16.996Z,10.15
2022-12-15T12:19:50.945Z,8.71
2022-12-15T12:22:20.443Z,8.07
2022-12-15T12:25:21.380Z,7.74
2022-12-15T12:28:15.467Z,7.72
2022-12-15T12:30:48.717Z,7.83
2022-12-15T12:33:41.236Z,7.79
2022-12-15T12:36:12.979Z,7.46
2022-12-15T12:38:50.603Z,7.03
2022-12-15T12:41:34.063Z,6.34
2022-12-15T12:44:09.087Z,5.93
2022-12-15T12:46:51.023Z,5.46
2022-12-15T12:49:27.153Z,5.53
2022-12-15T12:52:00.497Z,5.67
2022-12-15T12:54:36.593Z,5.84
2022-12-15T12:57:12.374Z,5.96
2022-12-15T12:59:48.887Z,5.76
2022-12-15T13:02:22.108Z,5.81
2022-12-15T13:04:57.789Z,5.86
2022-12-15T13:07:38.612Z,5.80
2022-12-15T13:10:08.079Z,5.59
2022-12-15T13:12:52.075Z,5.67
2022-12-15T13:15:31.216Z,5.52
2022-12-15T13:18:24.596Z,5.44
2022-12-15T13:20:56.041Z,5.36
2022-12-15T13:23:25.444Z,5.45
2022-12-15T13:25:57.869Z,5.34
2022-12-15T13:28:34.875Z,5.29
2022-12-15T13:31:16.904Z,5.32
2022-12-15T13:33:49.614Z,5.32
2022-12-15T13:36:38.186Z,5.29
2022-12-15T13:39:17.237Z,5.34
2022-12-15T13:42:07.370Z,5.33
2022-12-15T13:44:32.198Z,5.28
2022-12-15T13:47:19.048Z,5.23
2022-12-15T13:50:03.181Z,5.07
2022-12-15T13:53:16.510Z,5.14
2022-12-15T13:58:18.689Z,5.08
2022-12-15T14:00:52.100Z,5.16
2022-12-15T14:03:19.779Z,5.25
2022-12-15T14:05:53.340Z,5.28
2022-12-15T14:08:22.984Z,5.22
2022-12-15T14:11:07.092Z,5.23
2022-12-15T14:13:46.012Z,5.14
2022-12-15T14:16:21.788Z,5.19
2022-12-15T14:19:13.324Z,5.06
2022-12-15T14:21:40.445Z,5.08
2022-12-15T14:24:37.971Z,5.18
2022-12-15T14:27:05.964Z,5.28
2022-12-15T14:29:32.637Z,5.19
2022-12-15T14:32:00.226Z,4.97
2022-12-15T14:34:33.162Z,5.00
2022-12-15T14:37:03.374Z,4.55
2022-12-15T14:39:37.344Z,4.62
2022-12-15T14:42:07.425Z,4.42
2022-12-15T14:44:39.213Z,4.48
2022-12-15T14:47:16.514Z,4.29
2022-12-15T14:49:45.442Z,3.89
2022-12-15T14:52:27.123Z,3.92
2022-12-15T14:54:57.302Z,3.76
2022-12-15T14:57:40.420Z,3.77
2022-12-15T15:00:25.844Z,3.59
2022-12-15T15:05:59.891Z,3.63
2022-12-15T15:08:29.376Z,3.54
2022-12-15T15:10:59.520Z,3.43
2022-12-15T15:13:40.017Z,3.15
2022-12-15T15:16:13.975Z,3.14
2022-12-15T15:18:42.361Z,3.10
2022-12-15T15:21:16.882Z,3.12
2022-12-15T15:24:00.998Z,3.26
2022-12-15T15:26:29.283Z,3.23
2022-12-15T15:28:56.056Z,3.08
2022-12-15T15:31:27.231Z,2.96
2022-12-15T15:33:58.993Z,3.06
2022-12-15T15:36:37.354Z,2.97
2022-12-15T15:39:15.488Z,3.10
2022-12-15T15:41:42.533Z,2.94
2022-12-15T15:44:14.546Z,2.48
2022-12-15T15:46:51.951Z,2.51
2022-12-15T15:49:21.647Z,2.47
2022-12-15T15:51:48.964Z,2.55
2022-12-15T15:54:23.482Z,2.75
2022-12-15T15:56:50.262Z,2.46
2022-12-15T15:59:20.981Z,2.56
2022-12-15T16:01:54.384Z,2.66
2022-12-15T16:04:22.177Z,2.60
2022-12-15T16:06:49.618Z,2.49
2022-12-15T16:09:17.004Z,2.67
2022-12-15T16:11:45.707Z,2.70
2022-12-15T16:14:14.376Z,2.79
2022-12-15T16:16:41.877Z,2.69
2022-12-15T16:19:09.001Z,2.64
2022-12-15T16:21:36.189Z,2.38
2022-12-15T16:24:10.971Z,2.48
2022-12-15T16:26:38.873Z,2.46
2022-12-15T16:29:14.730Z,2.34
2022-12-15T16:31:45.364Z,2.38
2022-12-15T16:34:13.335Z,2.51
2022-12-15T16:36:40.660Z,2.65
2022-12-15T16:39:36.795Z,2.73
2022-12-15T16:42:04.037Z,2.70
2022-12-15T16:44:30.815Z,2.73
2022-12-15T16:46:58.744Z,2.73
2022-12-15T16:49:26.587Z,2.43
2022-12-15T16:51:54.044Z,2.77
2022-12-15T16:54:25.249Z,2.88
2022-12-15T16:56:54.009Z,3.07
2022-12-15T16:59:39.146Z,3.12
2022-12-15T17:02:29.454Z,3.24
2022-12-15T17:04:56.360Z,3.24
2022-12-15T17:07:26.234Z,3.23
2022-12-15T17:09:53.071Z,3.15
2022-12-15T17:12:19.897Z,2.90
2022-12-15T17:14:46.849Z,2.71
2022-12-15T17:17:15.452Z,2.66
2022-12-15T17:20:11.647Z,2.60
2022-12-15T17:22:32.688Z,2.51
2022-12-15T17:24:59.366Z,2.55
2022-12-15T17:27:28.267Z,2.53
2022-12-15T17:29:58.002Z,2.51
2022-12-15T17:32:24.687Z,2.38
2022-12-15T17:34:51.929Z,2.46
2022-12-15T17:37:18.859Z,2.51
2022-12-15T17:39:50.713Z,2.52
2022-12-15T17:42:22.171Z,2.66
2022-12-15T17:44:49.238Z,2.79
2022-12-15T17:47:18.640Z,2.76
2022-12-15T17:49:46.877Z,2.79
2022-12-15T17:52:26.111Z,2.82
2022-12-15T17:54:53.587Z,2.86
2022-12-15T17:57:20.686Z,2.88
2022-12-15T17:59:48.028Z,2.94
2022-12-15T18:02:15.546Z,2.80
2022-12-15T18:04:43.477Z,2.84
2022-12-15T18:07:17.035Z,2.83
2022-12-15T18:09:44.066Z,2.86
2022-12-15T18:12:23.334Z,2.83
2022-12-15T18:14:50.650Z,2.82
2022-12-15T18:17:17.392Z,2.81
2022-12-15T18:19:44.927Z,2.75
2022-12-15T18:22:15.217Z,2.81
2022-12-15T18:24:42.211Z,2.89
2022-12-15T18:27:19.654Z,2.85
2022-12-15T18:29:46.371Z,2.77
2022-12-15T18:32:13.177Z,2.82
2022-12-15T18:34:39.784Z,2.73
2022-12-15T18:37:15.139Z,2.74
2022-12-15T18:39:41.830Z,2.50
2022-12-15T18:42:14.717Z,2.52
2022-12-15T18:44:45.830Z,2.54
2022-12-15T18:47:23.497Z,2.56
2022-12-15T18:49:50.548Z,2.55
2022-12-15T18:52:21.462Z,2.56
2022-12-15T18:54:50.283Z,2.54
2022-12-15T18:57:35.776Z,2.61
2022-12-15T19:00:16.452Z,2.63
2022-12-15T19:02:43.345Z,2.59
2022-12-15T19:05:27.550Z,2.63
2022-12-15T19:08:01.507Z,2.68
2022-12-15T19:10:31.830Z,2.62
2022-12-15T19:12:58.980Z,2.63
2022-12-15T19:15:25.901Z,2.57
2022-12-15T19:18:11.610Z,2.52
2022-12-15T19:20:57.514Z,2.54
2022-12-15T19:23:24.401Z,2.52
2022-12-15T19:25:52.903Z,2.59
2022-12-15T19:28:24.333Z,2.55
2022-12-15T19:30:52.130Z,2.52
2022-12-15T19:33:19.943Z,2.55
2022-12-15T19:35:50.934Z,2.53
2022-12-15T19:38:25.411Z,2.51
2022-12-15T19:40:55.008Z,2.38
2022-12-15T19:43:23.540Z,2.30
2022-12-15T19:45:52.022Z,2.26
2022-12-15T19:48:23.845Z,2.15
2022-12-15T19:50:52.359Z,1.99
2022-12-15T19:53:24.038Z,1.85
2022-12-15T19:55:53.636Z,1.89
2022-12-15T19:58:34.127Z,1.97
2022-12-15T20:01:05.561Z,2.05
2022-12-15T20:03:33.551Z,2.05
2022-12-15T20:06:02.093Z,2.12
2022-12-15T20:08:34.311Z,2.05
2022-12-15T20:11:01.149Z,2.15
2022-12-15T20:13:27.795Z,2.22
2022-12-15T20:15:55.277Z,2.19
2022-12-15T20:18:22.140Z,2.29
2022-12-15T20:20:49.608Z,2.24
2022-12-15T20:23:25.971Z,2.17
2022-12-15T20:25:53.961Z,2.23
2022-12-15T20:28:28.437Z,2.18
2022-12-15T20:30:56.524Z,2.16
2022-12-15T20:33:23.205Z,2.17
2022-12-15T20:35:50.712Z,2.21
2022-12-15T20:38:23.489Z,2.18
2022-12-15T20:40:50.641Z,2.13
2022-12-15T20:43:20.481Z,2.12
2022-12-15T20:45:54.706Z,2.07
2022-12-15T20:48:24.802Z,2.02
2022-12-15T20:50:53.890Z,1.87
2022-12-15T20:53:23.948Z,1.84
2022-12-15T20:55:52.731Z,1.70
2022-12-15T20:58:20.412Z,1.69
2022-12-15T21:00:51.959Z,1.77
2022-12-15T21:03:20.680Z,1.81
2022-12-15T21:05:49.003Z,1.79
2022-12-15T21:08:19.308Z,1.76
2022-12-15T21:10:46.464Z,1.83
2022-12-15T21:13:17.840Z,1.73
2022-12-15T21:15:44.577Z,1.77
2022-12-15T21:18:51.885Z,1.79
2022-12-15T21:20:59.247Z,1.80
2022-12-15T21:23:29.356Z,1.77
2022-12-15T21:25:57.791Z,1.71
2022-12-15T21:28:25.435Z,1.69
2022-12-15T21:30:52.245Z,1.76
2022-12-15T21:33:18.995Z,1.80
2022-12-15T21:35:47.321Z,1.77
2022-12-15T21:38:28.420Z,1.75
2022-12-15T21:41:04.970Z,1.77
2022-12-15T21:43:34.872Z,1.72
2022-12-15T21:46:04.249Z,1.73
2022-12-15T21:48:49.652Z,1.72
2022-12-15T21:51:17.430Z,1.76
2022-12-15T21:53:46.001Z,1.79
2022-12-15T21:56:17.261Z,1.82
2022-12-15T21:58:51.404Z,1.85
2022-12-15T22:01:24.838Z,1.85
2022-12-15T22:03:54.614Z,1.86
2022-12-15T22:06:26.900Z,1.84
2022-12-15T22:08:55.210Z,1.81
2022-12-15T22:11:24.960Z,1.83
2022-12-15T22:13:53.218Z,1.85
2022-12-15T22:16:22.697Z,1.82
2022-12-15T22:18:53.201Z,1.81
2022-12-15T22:21:22.337Z,1.81
2022-12-15T22:23:50.693Z,1.81
2022-12-15T22:26:31.393Z,1.80
2022-12-15T22:29:02.879Z,1.77
2022-12-15T22:31:29.701Z,1.72
2022-12-15T22:33:56.434Z,1.62
2022-12-15T22:36:24.243Z,1.56
2022-12-15T22:38:50.955Z,1.54
2022-12-15T22:41:20.549Z,1.52
2022-12-15T22:43:51.981Z,1.51
2022-12-15T22:46:21.122Z,1.49
2022-12-15T22:48:47.984Z,1.47
2022-12-15T22:51:16.919Z,1.44
2022-12-15T22:53:43.869Z,1.39
2022-12-15T22:56:36.541Z,1.35
2022-12-15T22:59:07.209Z,1.33
2022-12-15T23:01:34.519Z,1.27
2022-12-15T23:04:01.201Z,1.25
2022-12-15T23:06:28.239Z,1.23
2022-12-15T23:08:56.249Z,1.21
2022-12-15T23:11:38.579Z,1.24
2022-12-15T23:14:08.291Z,1.21
2022-12-15T23:16:35.329Z,1.18
2022-12-15T23:19:02.323Z,1.21
2022-12-15T23:21:29.811Z,1.25
2022-12-15T23:23:57.782Z,1.28
2022-12-15T23:26:25.791Z,1.30
2022-12-15T23:28:53.582Z,1.31
2022-12-15T23:31:22.380Z,1.32
2022-12-15T23:33:49.887Z,1.33
2022-12-15T23:36:18.909Z,1.35
2022-12-15T23:38:46.098Z,1.37
2022-12-15T23:41:17.493Z,1.38
2022-12-15T23:43:44.241Z,1.38
2022-12-15T23:46:11.010Z,1.37
2022-12-15T23:48:43.036Z,1.38
2022-12-15T23:51:12.440Z,1.44
2022-12-15T23:53:40.227Z,1.41
2022-12-15T23:56:14.788Z,1.41
2022-12-15T23:58:43.052Z,1.46
